sensor_id;sensor_type;location;lat;lon;timestamp;pressure;altitude;pressure_sealevel;temperature;humidity
22311;BME280;11323;49.610;11.016;2022-07-23T00:01:35;98062.28;;;27.40;47.57
22311;BME280;11323;49.610;11.016;2022-07-23T00:06:35;98063.34;;;27.39;47.57
22311;BME280;11323;49.610;11.016;2022-07-23T00:11:36;98067.34;;;27.36;47.46
22311;BME280;11323;49.610;11.016;2022-07-23T00:16:36;98083.94;;;27.38;47.74
22311;BME280;11323;49.610;11.016;2022-07-23T00:21:37;98076.41;;;27.35;47.69
22311;BME280;11323;49.610;11.016;2022-07-23T00:26:37;98071.06;;;27.35;47.77
22311;BME280;11323;49.610;11.016;2022-07-23T00:31:37;98054.22;;;27.35;47.56
22311;BME280;11323;49.610;11.016;2022-07-23T00:36:38;98046.69;;;27.32;47.52
22311;BME280;11323;49.610;11.016;2022-07-23T00:41:39;98041.34;;;27.32;47.44
22311;BME280;11323;49.610;11.016;2022-07-23T00:46:45;98041.34;;;27.32;47.61
22311;BME280;11323;49.610;11.016;2022-07-23T00:51:46;98033.31;;;27.32;47.75
22311;BME280;11323;49.610;11.016;2022-07-23T00:56:47;98015.66;;;27.31;47.33
22311;BME280;11323;49.610;11.016;2022-07-23T01:01:48;98014.53;;;27.26;47.58
22311;BME280;11323;49.610;11.016;2022-07-23T01:06:49;98006.00;;;27.29;47.40
22311;BME280;11323;49.610;11.016;2022-07-23T01:11:50;97999.31;;;27.27;47.57
22311;BME280;11323;49.610;11.016;2022-07-23T01:16:51;98012.41;;;27.28;47.40
22311;BME280;11323;49.610;11.016;2022-07-23T01:21:53;98013.75;;;27.26;47.67
22311;BME280;11323;49.610;11.016;2022-07-23T01:26:54;98015.38;;;27.27;47.69
22311;BME280;11323;49.610;11.016;2022-07-23T01:31:55;98018.28;;;27.25;47.41
22311;BME280;11323;49.610;11.016;2022-07-23T01:36:55;98018.28;;;27.25;47.86
22311;BME280;11323;49.610;11.016;2022-07-23T01:41:56;98006.00;;;27.24;47.53
22311;BME280;11323;49.610;11.016;2022-07-23T01:46:58;98020.66;;;27.22;47.70
22311;BME280;11323;49.610;11.016;2022-07-23T01:51:58;98023.34;;;27.22;47.60
22311;BME280;11323;49.610;11.016;2022-07-23T01:57:16;98030.00;;;27.19;47.39
22311;BME280;11323;49.610;11.016;2022-07-23T02:02:17;98037.47;;;27.17;47.79
22311;BME280;11323;49.610;11.016;2022-07-23T02:07:17;98058.09;;;27.17;47.52
22311;BME280;11323;49.610;11.016;2022-07-23T02:12:18;98069.09;;;27.20;47.52
22311;BME280;11323;49.610;11.016;2022-07-23T02:17:19;98052.75;;;27.17;47.74
22311;BME280;11323;49.610;11.016;2022-07-23T02:22:19;98048.19;;;27.17;47.85
22311;BME280;11323;49.610;11.016;2022-07-23T02:27:19;98048.19;;;27.17;47.64
22311;BME280;11323;49.610;11.016;2022-07-23T02:32:20;98021.94;;;27.14;47.67
22311;BME280;11323;49.610;11.016;2022-07-23T02:37:21;98016.59;;;27.14;47.72
22311;BME280;11323;49.610;11.016;2022-07-23T02:42:21;98013.38;;;27.12;47.66
22311;BME280;11323;49.610;11.016;2022-07-23T02:47:23;98004.31;;;27.13;47.64
22311;BME280;11323;49.610;11.016;2022-07-23T02:52:24;98005.88;;;27.14;47.82
22311;BME280;11323;49.610;11.016;2022-07-23T02:57:25;97994.09;;;27.10;47.81
22311;BME280;11323;49.610;11.016;2022-07-23T03:02:26;97993.59;;;27.13;47.56
22311;BME280;11323;49.610;11.016;2022-07-23T03:07:27;97994.66;;;27.12;47.70
22311;BME280;11323;49.610;11.016;2022-07-23T03:12:28;97988.50;;;27.11;47.37
22311;BME280;11323;49.610;11.016;2022-07-23T03:17:28;97998.94;;;27.13;47.41
22311;BME280;11323;49.610;11.016;2022-07-23T03:22:29;98003.75;;;27.11;47.32
22311;BME280;11323;49.610;11.016;2022-07-23T03:27:30;98003.97;;;27.09;47.50
22311;BME280;11323;49.610;11.016;2022-07-23T03:32:30;98011.22;;;27.09;47.63
22311;BME280;11323;49.610;11.016;2022-07-23T03:37:31;98002.09;;;21.06;62.00
22311;BME280;11323;49.610;11.016;2022-07-23T03:42:33;98009.50;;;20.20;65.25
22311;BME280;11323;49.610;11.016;2022-07-23T03:47:34;98014.09;;;19.79;67.08
22311;BME280;11323;49.610;11.016;2022-07-23T03:52:35;98014.09;;;19.72;67.33
22311;BME280;11323;49.610;11.016;2022-07-23T03:57:35;98015.13;;;19.38;68.71
22311;BME280;11323;49.610;11.016;2022-07-23T04:02:37;98030.81;;;19.46;68.69
22311;BME280;11323;49.610;11.016;2022-07-23T04:07:37;98037.09;;;19.32;69.14
22311;BME280;11323;49.610;11.016;2022-07-23T04:12:38;98032.63;;;19.39;69.02
22311;BME280;11323;49.610;11.016;2022-07-23T04:17:39;98034.88;;;19.42;68.48
22311;BME280;11323;49.610;11.016;2022-07-23T04:22:40;98036.50;;;19.43;68.38
22311;BME280;11323;49.610;11.016;2022-07-23T04:27:40;98049.88;;;19.75;67.14
22311;BME280;11323;49.610;11.016;2022-07-23T04:32:41;98053.53;;;19.74;67.06
22311;BME280;11323;49.610;11.016;2022-07-23T04:37:52;98058.63;;;19.96;66.32
22311;BME280;11323;49.610;11.016;2022-07-23T04:42:53;98061.19;;;20.29;64.70
22311;BME280;11323;49.610;11.016;2022-07-23T04:47:54;98050.28;;;19.99;65.92
22311;BME280;11323;49.610;11.016;2022-07-23T04:52:54;98061.25;;;19.96;65.93
22311;BME280;11323;49.610;11.016;2022-07-23T04:57:56;98054.66;;;20.32;64.80
22311;BME280;11323;49.610;11.016;2022-07-23T05:02:57;98056.63;;;20.43;64.19
22311;BME280;11323;49.610;11.016;2022-07-23T05:07:57;98049.69;;;20.49;64.25
22311;BME280;11323;49.610;11.016;2022-07-23T05:12:58;98043.06;;;20.72;63.46
22311;BME280;11323;49.610;11.016;2022-07-23T05:17:58;98058.31;;;21.15;61.69
22311;BME280;11323;49.610;11.016;2022-07-23T05:23:00;98066.75;;;21.05;62.39
22311;BME280;11323;49.610;11.016;2022-07-23T05:28:02;98075.94;;;21.60;61.83
22311;BME280;11323;49.610;11.016;2022-07-23T05:33:03;98084.00;;;21.14;61.73
22311;BME280;11323;49.610;11.016;2022-07-23T05:38:04;98074.78;;;21.24;61.27
22311;BME280;11323;49.610;11.016;2022-07-23T05:43:05;98074.41;;;21.45;61.20
22311;BME280;11323;49.610;11.016;2022-07-23T05:48:06;98081.00;;;21.87;60.06
22311;BME280;11323;49.610;11.016;2022-07-23T05:53:13;98087.28;;;22.97;56.31
22311;BME280;11323;49.610;11.016;2022-07-23T05:58:32;98102.25;;;23.53;54.51
22311;BME280;11323;49.610;11.016;2022-07-23T06:03:32;98106.31;;;23.79;53.70
22311;BME280;11323;49.610;11.016;2022-07-23T06:08:33;98116.66;;;23.99;52.93
22311;BME280;11323;49.610;11.016;2022-07-23T06:13:34;98117.91;;;24.09;52.49
22311;BME280;11323;49.610;11.016;2022-07-23T06:18:35;98125.78;;;24.15;52.23
22311;BME280;11323;49.610;11.016;2022-07-23T06:23:35;98134.13;;;24.31;52.00
22311;BME280;11323;49.610;11.016;2022-07-23T06:28:36;98129.66;;;24.48;51.46
22311;BME280;11323;49.610;11.016;2022-07-23T06:33:36;98137.97;;;24.64;51.08
22311;BME280;11323;49.610;11.016;2022-07-23T06:38:36;98132.06;;;24.74;50.80
22311;BME280;11323;49.610;11.016;2022-07-23T06:43:37;98137.94;;;24.88;50.37
22311;BME280;11323;49.610;11.016;2022-07-23T06:48:41;98138.13;;;24.98;50.17
22311;BME280;11323;49.610;11.016;2022-07-23T06:53:42;98159.09;;;24.94;50.17
22311;BME280;11323;49.610;11.016;2022-07-23T06:58:43;98170.00;;;24.93;50.14
22311;BME280;11323;49.610;11.016;2022-07-23T07:03:43;98169.09;;;24.87;50.46
22311;BME280;11323;49.610;11.016;2022-07-23T07:08:44;98175.25;;;24.88;50.42
22311;BME280;11323;49.610;11.016;2022-07-23T07:13:44;98178.59;;;24.95;50.25
22311;BME280;11323;49.610;11.016;2022-07-23T07:18:45;98182.75;;;25.03;50.16
22311;BME280;11323;49.610;11.016;2022-07-23T07:23:45;98190.59;;;25.09;49.91
22311;BME280;11323;49.610;11.016;2022-07-23T07:28:45;98203.28;;;25.19;49.57
22311;BME280;11323;49.610;11.016;2022-07-23T07:33:46;98195.72;;;25.28;49.59
22311;BME280;11323;49.610;11.016;2022-07-23T07:38:46;98221.81;;;25.26;49.36
22311;BME280;11323;49.610;11.016;2022-07-23T07:43:47;98216.31;;;25.16;49.90
22311;BME280;11323;49.610;11.016;2022-07-23T07:48:47;98242.97;;;25.16;49.84
22311;BME280;11323;49.610;11.016;2022-07-23T07:53:48;98261.06;;;25.13;50.03
22311;BME280;11323;49.610;11.016;2022-07-23T07:58:48;98247.16;;;25.11;49.93
22311;BME280;11323;49.610;11.016;2022-07-23T08:03:48;98254.59;;;25.09;49.91
22311;BME280;11323;49.610;11.016;2022-07-23T08:08:49;98276.00;;;25.14;49.90
22311;BME280;11323;49.610;11.016;2022-07-23T08:13:49;98274.06;;;25.10;50.28
22311;BME280;11323;49.610;11.016;2022-07-23T08:18:49;98260.47;;;25.11;50.32
22311;BME280;11323;49.610;11.016;2022-07-23T08:23:50;98271.63;;;25.08;50.04
22311;BME280;11323;49.610;11.016;2022-07-23T08:28:50;98261.44;;;25.05;50.45
22311;BME280;11323;49.610;11.016;2022-07-23T08:33:51;98260.97;;;25.08;50.68
22311;BME280;11323;49.610;11.016;2022-07-23T08:38:53;98244.97;;;25.08;50.12
22311;BME280;11323;49.610;11.016;2022-07-23T08:43:54;98235.94;;;25.09;50.17
22311;BME280;11323;49.610;11.016;2022-07-23T08:48:55;98260.59;;;25.17;50.15
22311;BME280;11323;49.610;11.016;2022-07-23T08:53:56;98271.84;;;25.19;49.79
22311;BME280;11323;49.610;11.016;2022-07-23T08:58:57;98278.53;;;25.33;50.13
22311;BME280;11323;49.610;11.016;2022-07-23T09:03:57;98290.09;;;25.51;49.51
22311;BME280;11323;49.610;11.016;2022-07-23T09:08:58;98293.66;;;25.56;49.91
22311;BME280;11323;49.610;11.016;2022-07-23T09:14:18;98319.06;;;25.59;50.46
22311;BME280;11323;49.610;11.016;2022-07-23T09:19:35;98323.09;;;25.62;50.02
22311;BME280;11323;49.610;11.016;2022-07-23T09:24:36;98326.47;;;25.57;50.01
22311;BME280;11323;49.610;11.016;2022-07-23T09:29:36;98314.59;;;25.77;49.18
22311;BME280;11323;49.610;11.016;2022-07-23T09:34:36;98325.63;;;25.97;48.83
22311;BME280;11323;49.610;11.016;2022-07-23T09:39:41;98324.00;;;25.96;48.75
22311;BME280;11323;49.610;11.016;2022-07-23T09:44:44;98314.19;;;25.85;49.25
22311;BME280;11323;49.610;11.016;2022-07-23T09:55:06;98326.44;;;25.69;49.47
22311;BME280;11323;49.610;11.016;2022-07-23T10:00:09;98323.31;;;25.72;49.58
22311;BME280;11323;49.610;11.016;2022-07-23T10:05:10;98325.72;;;25.73;49.36
22311;BME280;11323;49.610;11.016;2022-07-23T10:10:30;98323.31;;;25.72;49.25
22311;BME280;11323;49.610;11.016;2022-07-23T10:15:54;98328.28;;;25.68;49.44
22311;BME280;11323;49.610;11.016;2022-07-23T10:20:54;98327.25;;;25.69;49.41
22311;BME280;11323;49.610;11.016;2022-07-23T10:26:23;98338.97;;;25.68;49.37
22311;BME280;11323;49.610;11.016;2022-07-23T10:36:54;98306.94;;;25.68;49.45
22311;BME280;11323;49.610;11.016;2022-07-23T10:42:15;98308.41;;;25.76;49.57
22311;BME280;11323;49.610;11.016;2022-07-23T10:47:28;98301.78;;;25.79;49.30
22311;BME280;11323;49.610;11.016;2022-07-23T10:58:09;98282.56;;;25.77;49.17
22311;BME280;11323;49.610;11.016;2022-07-23T11:03:31;98289.75;;;25.76;49.18
22311;BME280;11323;49.610;11.016;2022-07-23T11:08:32;98290.00;;;25.74;49.30
22311;BME280;11323;49.610;11.016;2022-07-23T11:24:17;98303.19;;;25.81;49.27
22311;BME280;11323;49.610;11.016;2022-07-23T11:34:42;98296.31;;;25.85;49.17
22311;BME280;11323;49.610;11.016;2022-07-23T11:39:46;98300.38;;;25.88;49.31
22311;BME280;11323;49.610;11.016;2022-07-23T11:44:47;98277.41;;;25.87;49.03
22311;BME280;11323;49.610;11.016;2022-07-23T11:49:56;98290.00;;;25.92;49.15
22311;BME280;11323;49.610;11.016;2022-07-23T12:00:15;98281.94;;;26.03;48.68
22311;BME280;11323;49.610;11.016;2022-07-23T12:05:22;98279.34;;;26.09;48.42
22311;BME280;11323;49.610;11.016;2022-07-23T12:10:41;98266.59;;;26.11;48.59
22311;BME280;11323;49.610;11.016;2022-07-23T12:15:44;98264.97;;;26.10;48.97
22311;BME280;11323;49.610;11.016;2022-07-23T12:20:48;98273.56;;;26.12;50.72
22311;BME280;11323;49.610;11.016;2022-07-23T12:25:50;98255.91;;;26.11;50.08
22311;BME280;11323;49.610;11.016;2022-07-23T12:30:52;98247.31;;;26.09;49.47
22311;BME280;11323;49.610;11.016;2022-07-23T12:35:54;98248.44;;;26.13;49.71
22311;BME280;11323;49.610;11.016;2022-07-23T12:40:57;98222.25;;;26.10;49.33
22311;BME280;11323;49.610;11.016;2022-07-23T12:51:07;98215.91;;;26.16;49.18
22311;BME280;11323;49.610;11.016;2022-07-23T12:56:11;98211.72;;;26.20;48.79
22311;BME280;11323;49.610;11.016;2022-07-23T13:06:25;98208.06;;;26.26;48.90
22311;BME280;11323;49.610;11.016;2022-07-23T13:11:26;98228.69;;;26.31;48.63
22311;BME280;11323;49.610;11.016;2022-07-23T13:16:27;98212.59;;;26.26;48.58
22311;BME280;11323;49.610;11.016;2022-07-23T13:21:28;98211.78;;;26.25;48.91
22311;BME280;11323;49.610;11.016;2022-07-23T13:26:29;98216.31;;;26.25;48.59
22311;BME280;11323;49.610;11.016;2022-07-23T13:31:29;98217.13;;;26.25;48.86
22311;BME280;11323;49.610;11.016;2022-07-23T13:36:30;98208.31;;;26.25;49.00
22311;BME280;11323;49.610;11.016;2022-07-23T13:41:30;98209.09;;;26.25;49.20
22311;BME280;11323;49.610;11.016;2022-07-23T13:46:31;98224.06;;;26.26;49.12
22311;BME280;11323;49.610;11.016;2022-07-23T13:51:32;98212.91;;;26.29;48.94
22311;BME280;11323;49.610;11.016;2022-07-23T13:56:32;98210.88;;;26.36;49.22
22311;BME280;11323;49.610;11.016;2022-07-23T14:01:33;98209.41;;;26.46;50.18
22311;BME280;11323;49.610;11.016;2022-07-23T14:06:33;98201.75;;;26.55;51.38
22311;BME280;11323;49.610;11.016;2022-07-23T14:11:34;98218.19;;;26.63;50.80
22311;BME280;11323;49.610;11.016;2022-07-23T14:16:34;98211.31;;;26.67;51.29
22311;BME280;11323;49.610;11.016;2022-07-23T14:21:36;98201.72;;;26.72;51.71
22311;BME280;11323;49.610;11.016;2022-07-23T14:26:36;98208.19;;;26.76;50.65
22311;BME280;11323;49.610;11.016;2022-07-23T14:31:37;98202.16;;;26.86;50.09
22311;BME280;11323;49.610;11.016;2022-07-23T14:36:38;98203.56;;;26.88;50.23
22311;BME280;11323;49.610;11.016;2022-07-23T14:41:39;98204.13;;;26.90;50.00
22311;BME280;11323;49.610;11.016;2022-07-23T14:46:39;98198.25;;;26.93;50.00
22311;BME280;11323;49.610;11.016;2022-07-23T14:51:40;98195.09;;;26.96;50.12
22311;BME280;11323;49.610;11.016;2022-07-23T14:56:42;98194.34;;;27.01;49.81
22311;BME280;11323;49.610;11.016;2022-07-23T15:01:43;98201.13;;;27.09;49.58
22311;BME280;11323;49.610;11.016;2022-07-23T15:06:43;98196.56;;;27.09;49.86
22311;BME280;11323;49.610;11.016;2022-07-23T15:11:44;98181.91;;;27.12;49.95
22311;BME280;11323;49.610;11.016;2022-07-23T15:16:45;98196.88;;;27.13;50.10
22311;BME280;11323;49.610;11.016;2022-07-23T15:21:45;98205.44;;;27.15;49.93
22311;BME280;11323;49.610;11.016;2022-07-23T15:26:46;98192.91;;;27.16;49.84
22311;BME280;11323;49.610;11.016;2022-07-23T15:31:46;98198.53;;;27.19;50.35
22311;BME280;11323;49.610;11.016;2022-07-23T15:36:47;98180.84;;;27.13;50.31
22311;BME280;11323;49.610;11.016;2022-07-23T15:41:47;98201.13;;;27.09;46.17
22311;BME280;11323;49.610;11.016;2022-07-23T15:46:48;98203.03;;;27.13;46.04
22311;BME280;11323;49.610;11.016;2022-07-23T15:51:48;98198.94;;;27.06;45.40
22311;BME280;11323;49.610;11.016;2022-07-23T15:56:48;98202.47;;;27.11;45.95
22311;BME280;11323;49.610;11.016;2022-07-23T16:01:49;98196.06;;;27.12;46.08
22311;BME280;11323;49.610;11.016;2022-07-23T16:06:50;98198.13;;;27.05;45.19
22311;BME280;11323;49.610;11.016;2022-07-23T16:11:50;98203.78;;;27.09;45.43
22311;BME280;11323;49.610;11.016;2022-07-23T16:16:51;98199.00;;;27.11;44.64
22311;BME280;11323;49.610;11.016;2022-07-23T16:21:51;98201.81;;;27.26;44.30
22311;BME280;11323;49.610;11.016;2022-07-23T16:26:52;98199.22;;;27.32;43.87
22311;BME280;11323;49.610;11.016;2022-07-23T16:31:52;98204.84;;;27.35;43.50
22311;BME280;11323;49.610;11.016;2022-07-23T16:36:53;98205.69;;;27.36;43.21
22311;BME280;11323;49.610;11.016;2022-07-23T16:41:53;98207.25;;;27.32;42.82
22311;BME280;11323;49.610;11.016;2022-07-23T16:46:53;98202.16;;;27.30;43.30
22311;BME280;11323;49.610;11.016;2022-07-23T16:51:54;98212.47;;;27.21;43.03
22311;BME280;11323;49.610;11.016;2022-07-23T16:56:54;98217.53;;;27.18;42.87
22311;BME280;11323;49.610;11.016;2022-07-23T17:01:55;98213.81;;;27.19;43.09
22311;BME280;11323;49.610;11.016;2022-07-23T17:06:55;98213.06;;;27.23;42.92
22311;BME280;11323;49.610;11.016;2022-07-23T17:11:57;98221.94;;;27.29;43.25
22311;BME280;11323;49.610;11.016;2022-07-23T17:16:57;98221.69;;;27.31;43.15
22311;BME280;11323;49.610;11.016;2022-07-23T17:21:58;98225.38;;;27.24;43.05
22311;BME280;11323;49.610;11.016;2022-07-23T17:26:59;98223.41;;;27.20;42.95
22311;BME280;11323;49.610;11.016;2022-07-23T17:32:00;98232.31;;;27.25;43.04
22311;BME280;11323;49.610;11.016;2022-07-23T17:37:00;98227.97;;;27.19;42.92
22311;BME280;11323;49.610;11.016;2022-07-23T17:42:00;98231.66;;;27.13;43.27
22311;BME280;11323;49.610;11.016;2022-07-23T17:47:01;98236.50;;;27.16;43.21
22311;BME280;11323;49.610;11.016;2022-07-23T17:52:03;98233.81;;;27.16;43.32
22311;BME280;11323;49.610;11.016;2022-07-23T17:57:03;98240.47;;;27.13;43.78
22311;BME280;11323;49.610;11.016;2022-07-23T18:02:04;98245.53;;;27.10;43.63
22311;BME280;11323;49.610;11.016;2022-07-23T18:07:04;98248.13;;;27.05;43.07
22311;BME280;11323;49.610;11.016;2022-07-23T18:12:05;98249.16;;;26.98;43.32
22311;BME280;11323;49.610;11.016;2022-07-23T18:17:05;98256.28;;;26.93;43.41
22311;BME280;11323;49.610;11.016;2022-07-23T18:22:06;98258.59;;;26.84;42.68
22311;BME280;11323;49.610;11.016;2022-07-23T18:27:06;98255.91;;;26.84;43.35
22311;BME280;11323;49.610;11.016;2022-07-23T18:32:07;98258.59;;;26.84;43.19
22311;BME280;11323;49.610;11.016;2022-07-23T18:37:08;98267.16;;;26.86;42.91
22311;BME280;11323;49.610;11.016;2022-07-23T18:42:09;98276.25;;;26.85;42.03
22311;BME280;11323;49.610;11.016;2022-07-23T18:47:10;98276.72;;;26.82;42.24
22311;BME280;11323;49.610;11.016;2022-07-23T18:52:10;98289.19;;;26.76;43.04
22311;BME280;11323;49.610;11.016;2022-07-23T18:57:11;98297.22;;;26.76;43.32
22311;BME280;11323;49.610;11.016;2022-07-23T19:02:11;98301.09;;;26.68;43.68
22311;BME280;11323;49.610;11.016;2022-07-23T19:07:12;98302.59;;;26.59;43.76
22311;BME280;11323;49.610;11.016;2022-07-23T19:12:12;98315.41;;;26.40;44.42
22311;BME280;11323;49.610;11.016;2022-07-23T19:17:12;98333.94;;;26.47;44.02
22311;BME280;11323;49.610;11.016;2022-07-23T19:22:13;98332.16;;;26.52;44.59
22311;BME280;11323;49.610;11.016;2022-07-23T19:27:14;98346.91;;;26.38;44.57
22311;BME280;11323;49.610;11.016;2022-07-23T19:32:14;98354.03;;;26.32;44.60
22311;BME280;11323;49.610;11.016;2022-07-23T19:37:15;98371.91;;;26.49;44.84
22311;BME280;11323;49.610;11.016;2022-07-23T19:42:18;98369.72;;;26.63;45.05
22311;BME280;11323;49.610;11.016;2022-07-23T19:47:18;98380.81;;;26.72;45.44
22311;BME280;11323;49.610;11.016;2022-07-23T19:52:18;98391.13;;;26.80;45.29
22311;BME280;11323;49.610;11.016;2022-07-23T19:57:19;98398.19;;;26.86;45.60
22311;BME280;11323;49.610;11.016;2022-07-23T20:02:19;98394.28;;;26.77;45.41
22311;BME280;11323;49.610;11.016;2022-07-23T20:07:20;98395.25;;;26.71;45.33
22311;BME280;11323;49.610;11.016;2022-07-23T20:12:20;98392.50;;;26.65;45.48
22311;BME280;11323;49.610;11.016;2022-07-23T20:17:21;98395.19;;;26.65;45.58
22311;BME280;11323;49.610;11.016;2022-07-23T20:22:21;98401.00;;;26.62;45.59
22311;BME280;11323;49.610;11.016;2022-07-23T20:27:21;98394.03;;;26.61;45.43
22311;BME280;11323;49.610;11.016;2022-07-23T20:32:22;98402.53;;;26.58;45.70
22311;BME280;11323;49.610;11.016;2022-07-23T20:37:22;98406.50;;;26.56;45.51
22311;BME280;11323;49.610;11.016;2022-07-23T20:42:23;98413.22;;;26.58;45.53
22311;BME280;11323;49.610;11.016;2022-07-23T20:47:23;98423.38;;;26.56;45.64
22311;BME280;11323;49.610;11.016;2022-07-23T20:52:24;98424.16;;;26.57;45.99
22311;BME280;11323;49.610;11.016;2022-07-23T20:57:24;98426.50;;;26.53;45.82
22311;BME280;11323;49.610;11.016;2022-07-23T21:02:25;98431.28;;;26.51;45.87
22311;BME280;11323;49.610;11.016;2022-07-23T21:07:25;98424.31;;;26.50;45.92
22311;BME280;11323;49.610;11.016;2022-07-23T21:12:26;98430.50;;;26.50;46.15
22311;BME280;11323;49.610;11.016;2022-07-23T21:17:26;98430.63;;;26.44;45.94
22311;BME280;11323;49.610;11.016;2022-07-23T21:22:27;98437.34;;;26.46;45.87
22311;BME280;11323;49.610;11.016;2022-07-23T21:27:27;98442.44;;;26.48;45.95
22311;BME280;11323;49.610;11.016;2022-07-23T21:32:27;98431.91;;;26.41;45.90
22311;BME280;11323;49.610;11.016;2022-07-23T21:37:28;98448.78;;;26.42;45.74
22311;BME280;11323;49.610;11.016;2022-07-23T21:42:28;98437.25;;;26.41;45.84
22311;BME280;11323;49.610;11.016;2022-07-23T21:47:29;98446.66;;;26.44;46.10
22311;BME280;11323;49.610;11.016;2022-07-23T21:52:29;98447.16;;;26.41;45.95
22311;BME280;11323;49.610;11.016;2022-07-23T21:57:31;98445.19;;;26.36;45.91
22311;BME280;11323;49.610;11.016;2022-07-23T22:02:31;98452.16;;;26.37;45.91
22311;BME280;11323;49.610;11.016;2022-07-23T22:07:32;98458.88;;;26.40;46.14
22311;BME280;11323;49.610;11.016;2022-07-23T22:12:32;98454.00;;;26.36;46.06
22311;BME280;11323;49.610;11.016;2022-07-23T22:17:33;98456.69;;;26.36;46.17
22311;BME280;11323;49.610;11.016;2022-07-23T22:22:33;98458.81;;;26.34;46.27
22311;BME280;11323;49.610;11.016;2022-07-23T22:27:34;98455.56;;;26.32;46.26
22311;BME280;11323;49.610;11.016;2022-07-23T22:32:34;98455.56;;;26.32;46.27
22311;BME280;11323;49.610;11.016;2022-07-23T22:37:35;98456.59;;;26.31;46.23
22311;BME280;11323;49.610;11.016;2022-07-23T22:42:35;98463.78;;;26.31;46.16
22311;BME280;11323;49.610;11.016;2022-07-23T22:47:36;98472.06;;;26.29;46.46
22311;BME280;11323;49.610;11.016;2022-07-23T22:52:36;98474.72;;;26.29;46.43
22311;BME280;11323;49.610;11.016;2022-07-23T22:57:37;98474.97;;;26.28;46.26
22311;BME280;11323;49.610;11.016;2022-07-23T23:02:38;98462.88;;;26.25;46.38
22311;BME280;11323;49.610;11.016;2022-07-23T23:07:38;98467.69;;;26.23;46.60
22311;BME280;11323;49.610;11.016;2022-07-23T23:12:38;98473.03;;;26.23;46.59
22311;BME280;11323;49.610;11.016;2022-07-23T23:17:39;98473.03;;;26.23;46.36
22311;BME280;11323;49.610;11.016;2022-07-23T23:22:40;98473.03;;;26.23;46.52
22311;BME280;11323;49.610;11.016;2022-07-23T23:27:40;98464.44;;;26.21;46.96
22311;BME280;11323;49.610;11.016;2022-07-23T23:32:41;98470.25;;;26.18;46.55
22311;BME280;11323;49.610;11.016;2022-07-23T23:37:41;98475.00;;;26.16;46.51
22311;BME280;11323;49.610;11.016;2022-07-23T23:42:42;98480.94;;;26.18;46.60
22311;BME280;11323;49.610;11.016;2022-07-23T23:47:42;98475.25;;;26.14;46.70
22311;BME280;11323;49.610;11.016;2022-07-23T23:52:42;98486.28;;;26.18;46.71
22311;BME280;11323;49.610;11.016;2022-07-23T23:57:43;98491.63;;;26.18;46.56
